Time;durP1;ratioP1;P1;durP2;ratioP2;P2;SDS_P1;SDS_P2;PMS_P1;PMS_P2;Temp;Humidity;BMP_temperature;BMP_pressure;BME280_temperature;BME280_humidity;BME280_pressure;Samples;Min_cycle;Max_cycle;Signal;HPM_P1;HPM_P2
2023/05/30 00:01:19;;;;;;;12.10;2.92;;;11.30;99.90;;;;;;5030227;28;20682;-64
2023/05/30 00:03:46;;;;;;;8.70;3.10;;;11.30;99.90;;;;;;5009840;28;20408;-64
2023/05/30 00:06:14;;;;;;;9.27;3.10;;;11.30;99.90;;;;;;5042910;28;20201;-64
2023/05/30 00:08:41;;;;;;;6.70;2.28;;;11.30;99.90;;;;;;5032385;28;20208;-64
2023/05/30 00:11:08;;;;;;;6.80;2.60;;;11.30;99.90;;;;;;5042866;28;20197;-64
2023/05/30 00:13:35;;;;;;;11.63;2.85;;;11.30;99.90;;;;;;5039504;28;20205;-63
2023/05/30 00:16:03;;;;;;;9.05;2.88;;;11.30;99.90;;;;;;5028130;28;20586;-64
2023/05/30 00:18:34;;;;;;;9.50;3.05;;;11.20;99.90;;;;;;5007196;28;20221;-63
2023/05/30 00:21:03;;;;;;;11.77;3.92;;;11.20;99.90;;;;;;5039647;28;20201;-64
2023/05/30 00:23:31;;;;;;;9.38;3.58;;;11.20;99.90;;;;;;5030345;28;20876;-63
2023/05/30 00:25:59;;;;;;;6.90;3.00;;;11.20;99.90;;;;;;5039033;28;20193;-64
2023/05/30 00:28:26;;;;;;;8.63;3.28;;;11.20;99.90;;;;;;5045417;28;20279;-63
2023/05/30 00:30:53;;;;;;;7.22;3.10;;;11.10;99.90;;;;;;5026784;28;20982;-64
2023/05/30 00:33:21;;;;;;;6.55;2.83;;;11.10;99.90;;;;;;5003631;28;21443;-63
2023/05/30 00:35:48;;;;;;;9.32;3.15;;;11.10;99.90;;;;;;5043474;28;20986;-63
2023/05/30 00:38:15;;;;;;;13.50;2.63;;;11.10;99.90;;;;;;5042171;28;20188;-63
2023/05/30 00:40:43;;;;;;;8.90;2.55;;;11.10;99.90;;;;;;5034060;28;21211;-63
2023/05/30 00:43:10;;;;;;;9.68;2.63;;;11.10;99.90;;;;;;5044943;28;20193;-63
2023/05/30 00:45:37;;;;;;;13.70;3.45;;;11.00;99.90;;;;;;5030451;28;20212;-63
2023/05/30 00:48:05;;;;;;;6.68;2.65;;;11.10;99.90;;;;;;5040892;28;20211;-63
2023/05/30 00:50:33;;;;;;;14.77;3.60;;;11.10;99.90;;;;;;5009531;28;20671;-64
2023/05/30 00:53:01;;;;;;;11.68;3.20;;;11.10;99.90;;;;;;5038667;28;20202;-63
2023/05/30 00:55:28;;;;;;;10.15;2.92;;;11.10;99.90;;;;;;5033911;28;20239;-63
2023/05/30 00:57:57;;;;;;;7.70;3.33;;;11.10;99.90;;;;;;5033811;28;20659;-63
2023/05/30 01:00:26;;;;;;;8.18;2.83;;;11.00;99.90;;;;;;5039903;28;20197;-63
2023/05/30 01:02:57;;;;;;;5.75;3.22;;;11.00;99.90;;;;;;5024634;28;20224;-64
2023/05/30 01:05:24;;;;;;;9.68;3.58;;;11.00;99.90;;;;;;4999469;28;20200;-64
2023/05/30 01:07:52;;;;;;;7.28;2.75;;;11.00;99.90;;;;;;5041411;28;20727;-64
2023/05/30 01:10:19;;;;;;;6.53;2.85;;;10.90;99.90;;;;;;5028030;28;20263;-64
2023/05/30 01:12:56;;;;;;;10.20;3.60;;;10.90;99.90;;;;;;5042580;28;20234;-64
2023/05/30 01:15:29;;;;;;;5.40;3.28;;;10.90;99.90;;;;;;5041838;28;20235;-63
2023/05/30 01:18:01;;;;;;;11.35;2.35;;;10.80;99.90;;;;;;5021906;28;20213;-64
2023/05/30 01:20:32;;;;;;;9.85;3.33;;;10.70;99.90;;;;;;5030169;28;20205;-64
2023/05/30 01:23:13;;;;;;;11.75;2.83;;;10.70;99.90;;;;;;5000656;28;20209;-64
2023/05/30 01:25:53;;;;;;;10.75;3.47;;;10.70;99.90;;;;;;5043194;28;20196;-63
2023/05/30 01:28:23;;;;;;;8.68;3.05;;;10.70;99.90;;;;;;5029237;28;20504;-63
2023/05/30 01:30:52;;;;;;;6.90;2.65;;;10.70;99.90;;;;;;5040804;28;20196;-63
2023/05/30 01:33:20;;;;;;;10.18;2.42;;;10.80;99.90;;;;;;5025653;28;20517;-63
2023/05/30 01:35:48;;;;;;;11.50;3.08;;;10.60;99.90;;;;;;5025905;28;20245;-64
2023/05/30 01:38:15;;;;;;;8.98;2.72;;;10.60;99.90;;;;;;5022168;28;20202;-63
2023/05/30 01:40:45;;;;;;;9.60;2.90;;;10.60;99.90;;;;;;5040489;28;20228;-63
2023/05/30 01:43:22;;;;;;;9.07;2.70;;;10.60;99.90;;;;;;5027916;28;20990;-63
2023/05/30 01:45:58;;;;;;;6.68;2.60;;;10.60;99.90;;;;;;5041179;28;20728;-63
2023/05/30 01:48:35;;;;;;;10.30;2.90;;;10.50;99.90;;;;;;5025363;28;20207;-64
2023/05/30 01:51:06;;;;;;;9.25;3.00;;;10.40;99.90;;;;;;4997630;28;20674;-64
2023/05/30 01:53:39;;;;;;;9.93;2.97;;;10.40;99.90;;;;;;5037204;28;20197;-63
2023/05/30 01:56:08;;;;;;;7.60;3.20;;;10.40;99.90;;;;;;5033339;28;20429;-63
2023/05/30 01:58:37;;;;;;;11.60;2.97;;;10.50;99.90;;;;;;5028897;28;20209;-63
2023/05/30 02:01:07;;;;;;;10.00;3.03;;;10.50;99.90;;;;;;5034839;28;20205;-63
2023/05/30 02:03:34;;;;;;;9.98;2.92;;;10.40;99.90;;;;;;5037102;28;20219;-63
2023/05/30 02:06:01;;;;;;;10.65;3.30;;;10.40;99.90;;;;;;4987072;28;20205;-63
2023/05/30 02:08:28;;;;;;;14.70;3.85;;;10.40;99.90;;;;;;5040130;28;20208;-63
2023/05/30 02:10:55;;;;;;;14.55;3.55;;;10.40;99.90;;;;;;5038742;28;20196;-63
2023/05/30 02:13:22;;;;;;;13.00;3.30;;;10.40;99.90;;;;;;5027153;28;20304;-63
2023/05/30 02:15:49;;;;;;;15.68;3.10;;;10.40;99.90;;;;;;5036312;28;20231;-63
2023/05/30 02:18:17;;;;;;;9.20;3.55;;;10.50;99.90;;;;;;5036623;28;20196;-63
2023/05/30 02:20:44;;;;;;;14.15;3.20;;;10.40;99.90;;;;;;5025203;28;20201;-63
2023/05/30 02:23:10;;;;;;;13.93;4.00;;;10.40;99.90;;;;;;5005421;28;20207;-64
2023/05/30 02:25:37;;;;;;;16.63;3.67;;;10.40;99.90;;;;;;5036326;28;20192;-63
2023/05/30 02:28:05;;;;;;;11.10;3.13;;;10.40;99.90;;;;;;5026027;28;20805;-64
2023/05/30 02:30:32;;;;;;;9.02;3.20;;;10.40;99.90;;;;;;5039695;28;20291;-63
2023/05/30 02:32:59;;;;;;;10.93;4.13;;;10.40;99.90;;;;;;5033361;28;20204;-63
2023/05/30 02:35:27;;;;;;;6.93;3.15;;;10.30;99.90;;;;;;5042783;28;20246;-63
2023/05/30 02:37:54;;;;;;;9.43;3.35;;;10.30;99.90;;;;;;4996399;28;20573;-63
2023/05/30 02:40:21;;;;;;;17.20;3.55;;;10.30;99.90;;;;;;5036710;28;20303;-63
2023/05/30 02:42:49;;;;;;;8.80;2.92;;;10.30;99.90;;;;;;5038473;28;20193;-63
2023/05/30 02:45:16;;;;;;;11.45;3.28;;;10.40;99.90;;;;;;5029178;28;20637;-64
2023/05/30 02:47:42;;;;;;;18.88;3.72;;;10.40;99.90;;;;;;5039701;28;20235;-63
2023/05/30 02:50:10;;;;;;;11.20;3.60;;;10.40;99.90;;;;;;5040290;28;20209;-63
2023/05/30 02:52:38;;;;;;;10.68;3.45;;;10.50;99.90;;;;;;4995979;28;20217;-63
2023/05/30 02:55:05;;;;;;;6.45;3.22;;;10.50;99.90;;;;;;5034102;28;20314;-64
2023/05/30 02:57:32;;;;;;;8.73;3.20;;;10.50;99.90;;;;;;5042807;28;20789;-64
2023/05/30 02:59:59;;;;;;;14.73;3.03;;;10.60;99.90;;;;;;5030606;28;20292;-64
2023/05/30 03:02:26;;;;;;;10.68;2.97;;;10.60;99.90;;;;;;5034348;28;20211;-64
2023/05/30 03:04:53;;;;;;;14.20;3.95;;;10.70;99.90;;;;;;5038582;28;20197;-64
2023/05/30 03:07:20;;;;;;;7.45;3.47;;;10.70;99.90;;;;;;5029579;28;22534;-63
2023/05/30 03:09:48;;;;;;;9.18;2.90;;;10.70;99.90;;;;;;5008687;28;20219;-64
2023/05/30 03:12:15;;;;;;;7.97;2.80;;;10.80;99.90;;;;;;5036831;28;20247;-63
2023/05/30 03:14:42;;;;;;;14.32;3.20;;;10.90;99.90;;;;;;5041589;28;20202;-63
2023/05/30 03:17:09;;;;;;;14.02;3.42;;;10.90;99.90;;;;;;5024796;28;21058;-63
2023/05/30 03:19:36;;;;;;;12.40;3.42;;;10.90;99.90;;;;;;5040775;28;20242;-63
2023/05/30 03:22:03;;;;;;;18.65;3.63;;;10.90;99.90;;;;;;5020334;28;20204;-63
2023/05/30 03:24:30;;;;;;;16.70;3.17;;;10.90;99.90;;;;;;5009730;28;20204;-63
2023/05/30 03:26:58;;;;;;;11.35;3.30;;;11.00;99.90;;;;;;5031187;28;20263;-63
2023/05/30 03:29:25;;;;;;;11.75;3.35;;;11.00;99.90;;;;;;5038398;28;20200;-64
2023/05/30 03:31:52;;;;;;;11.75;3.55;;;11.00;99.90;;;;;;5023116;28;20261;-64
2023/05/30 03:34:19;;;;;;;13.52;3.45;;;11.00;99.90;;;;;;5035155;28;20423;-63
2023/05/30 03:36:46;;;;;;;15.68;3.40;;;11.00;99.90;;;;;;5037313;28;20239;-63
2023/05/30 03:39:14;;;;;;;17.10;3.85;;;11.00;99.90;;;;;;5027883;28;20224;-64
2023/05/30 03:41:40;;;;;;;8.30;3.47;;;11.10;99.90;;;;;;5000124;28;20225;-63
2023/05/30 03:44:08;;;;;;;11.85;3.10;;;11.10;99.90;;;;;;5028186;28;20201;-64
2023/05/30 03:46:35;;;;;;;15.63;3.50;;;11.10;99.90;;;;;;5022088;28;20224;-63
2023/05/30 03:49:02;;;;;;;12.77;3.55;;;11.10;99.90;;;;;;5032968;28;20530;-63
2023/05/30 03:51:29;;;;;;;12.27;3.67;;;11.10;99.90;;;;;;5032616;28;20197;-63
2023/05/30 03:53:56;;;;;;;12.43;3.60;;;11.20;99.90;;;;;;5027432;28;20209;-63
2023/05/30 03:56:23;;;;;;;12.35;3.95;;;11.10;99.90;;;;;;5013879;28;20220;-63
2023/05/30 03:58:50;;;;;;;13.05;3.35;;;11.20;99.90;;;;;;5045013;28;20673;-64
2023/05/30 04:01:19;;;;;;;8.55;3.13;;;11.20;99.90;;;;;;5034050;28;20198;-64
2023/05/30 04:03:46;;;;;;;14.77;3.28;;;11.20;99.90;;;;;;5041375;28;20208;-63
2023/05/30 04:06:12;;;;;;;9.05;3.65;;;11.20;99.90;;;;;;5043316;28;20193;-63
2023/05/30 04:08:41;;;;;;;14.90;4.38;;;11.20;99.90;;;;;;5028505;28;20204;-64
2023/05/30 04:11:07;;;;;;;12.63;3.67;;;11.20;99.90;;;;;;5011774;28;25761;-63
2023/05/30 04:13:34;;;;;;;9.05;3.50;;;11.20;99.90;;;;;;5043380;28;20426;-64
2023/05/30 04:16:01;;;;;;;12.15;3.28;;;11.20;99.90;;;;;;5037448;28;22864;-64
2023/05/30 04:18:29;;;;;;;9.20;3.30;;;11.20;99.90;;;;;;5029122;28;20596;-63
2023/05/30 04:20:56;;;;;;;11.93;2.60;;;11.20;99.90;;;;;;5039876;28;20216;-63
2023/05/30 04:23:23;;;;;;;14.23;3.15;;;11.20;99.90;;;;;;5025347;28;20205;-63
2023/05/30 04:25:50;;;;;;;10.30;2.75;;;11.20;99.90;;;;;;5009141;28;20269;-64
2023/05/30 04:28:19;;;;;;;9.27;2.80;;;11.30;99.90;;;;;;5040497;28;20227;-64
2023/05/30 04:30:48;;;;;;;10.73;3.00;;;11.20;99.90;;;;;;5044033;28;20217;-64
2023/05/30 04:33:15;;;;;;;11.52;3.20;;;11.30;99.90;;;;;;5025210;28;20690;-63
2023/05/30 04:35:44;;;;;;;4.78;2.75;;;11.30;99.90;;;;;;5047713;28;20213;-63
2023/05/30 04:38:20;;;;;;;12.65;2.95;;;11.30;99.90;;;;;;5015545;28;20224;-64
2023/05/30 04:40:50;;;;;;;9.43;2.75;;;11.30;99.90;;;;;;5034858;28;20658;-63
2023/05/30 04:43:19;;;;;;;8.98;2.33;;;11.30;99.90;;;;;;5006496;28;20709;-63
2023/05/30 04:45:47;;;;;;;9.98;3.33;;;11.30;99.90;;;;;;5043508;28;20236;-64
2023/05/30 04:48:15;;;;;;;11.52;2.72;;;11.30;99.90;;;;;;5027318;28;20200;-64
2023/05/30 04:50:46;;;;;;;14.40;2.60;;;11.30;99.90;;;;;;5036439;28;20256;-64
2023/05/30 04:53:15;;;;;;;15.82;2.95;;;11.30;99.90;;;;;;5024661;28;20204;-64
2023/05/30 04:55:43;;;;;;;10.05;2.30;;;11.30;99.90;;;;;;5029835;28;20432;-64
2023/05/30 04:58:09;;;;;;;7.80;2.33;;;11.30;99.90;;;;;;5003146;28;20205;-64
2023/05/30 05:00:37;;;;;;;7.78;2.88;;;11.30;99.90;;;;;;5036605;28;20411;-64
2023/05/30 05:03:04;;;;;;;7.55;2.70;;;11.30;99.90;;;;;;5041283;28;20202;-64
2023/05/30 05:05:31;;;;;;;7.93;2.33;;;11.40;99.90;;;;;;5019540;28;21508;-64
2023/05/30 05:07:58;;;;;;;8.13;2.50;;;11.30;99.90;;;;;;5038577;28;20204;-64
2023/05/30 05:10:26;;;;;;;7.07;2.65;;;11.30;99.90;;;;;;5018667;28;20204;-63
2023/05/30 05:12:53;;;;;;;5.82;2.08;;;11.40;99.90;;;;;;5032921;28;20291;-63
2023/05/30 05:15:20;;;;;;;6.85;2.30;;;11.40;99.90;;;;;;4991903;28;20512;-64
2023/05/30 05:17:46;;;;;;;12.40;2.70;;;11.40;99.90;;;;;;5040729;28;20224;-63
2023/05/30 05:20:13;;;;;;;6.25;2.88;;;11.40;99.90;;;;;;5011530;28;20264;-64
2023/05/30 05:22:40;;;;;;;9.10;2.33;;;11.40;99.90;;;;;;5030665;28;20307;-64
2023/05/30 05:25:08;;;;;;;10.63;2.67;;;11.40;99.90;;;;;;5041305;28;20224;-64
2023/05/30 05:27:36;;;;;;;7.60;2.00;;;11.40;99.90;;;;;;5032227;28;20291;-64
2023/05/30 05:30:05;;;;;;;10.50;2.40;;;11.40;99.90;;;;;;5003491;28;20231;-64
2023/05/30 05:32:36;;;;;;;14.85;2.20;;;11.50;99.90;;;;;;5035631;28;20316;-64
2023/05/30 05:35:03;;;;;;;10.23;2.20;;;11.40;99.90;;;;;;5030146;28;20701;-64
2023/05/30 05:37:30;;;;;;;6.78;2.42;;;11.40;99.90;;;;;;5029741;28;21007;-64
2023/05/30 05:39:58;;;;;;;10.55;3.10;;;11.40;99.90;;;;;;5033391;28;20674;-64
2023/05/30 05:42:24;;;;;;;9.57;2.67;;;11.40;99.90;;;;;;5021899;28;20950;-64
2023/05/30 05:44:52;;;;;;;13.05;2.90;;;11.40;99.90;;;;;;5044760;28;20198;-63
2023/05/30 05:47:19;;;;;;;3.70;2.33;;;11.40;99.90;;;;;;4994759;28;20233;-63
2023/05/30 05:49:46;;;;;;;8.05;2.83;;;11.40;99.90;;;;;;5040047;28;20205;-63
2023/05/30 05:52:13;;;;;;;6.15;2.60;;;11.40;99.90;;;;;;5020154;28;20205;-64
2023/05/30 05:54:40;;;;;;;8.60;2.03;;;11.50;99.90;;;;;;5032319;28;20217;-64
2023/05/30 05:57:07;;;;;;;9.10;2.75;;;11.40;99.90;;;;;;5030483;28;20225;-64
2023/05/30 05:59:34;;;;;;;6.90;2.70;;;11.50;99.90;;;;;;5034336;28;20882;-64
2023/05/30 06:02:02;;;;;;;8.40;2.15;;;11.40;99.90;;;;;;4983277;28;20947;-64
2023/05/30 06:04:28;;;;;;;6.95;2.72;;;11.50;99.90;;;;;;5015860;28;20208;-65
2023/05/30 06:06:55;;;;;;;6.47;2.88;;;11.40;99.90;;;;;;4978638;28;20208;-64
2023/05/30 06:09:24;;;;;;;7.97;2.90;;;11.50;99.90;;;;;;5016925;28;20435;-65
2023/05/30 06:11:50;;;;;;;8.93;2.70;;;11.60;99.90;;;;;;5028411;28;20204;-64
2023/05/30 06:14:17;;;;;;;5.95;2.28;;;11.60;99.90;;;;;;5023787;28;20201;-64
2023/05/30 06:16:44;;;;;;;5.43;2.25;;;11.60;99.90;;;;;;4986114;28;20891;-64
2023/05/30 06:19:12;;;;;;;9.32;3.03;;;11.60;99.90;;;;;;5029570;28;20208;-64
2023/05/30 06:21:39;;;;;;;11.38;3.17;;;11.60;99.90;;;;;;5028495;28;20204;-64
2023/05/30 06:24:06;;;;;;;9.73;3.33;;;11.60;99.90;;;;;;5025374;28;20220;-63
2023/05/30 06:26:33;;;;;;;6.72;2.95;;;11.70;99.90;;;;;;5035583;28;20232;-63
2023/05/30 06:29:00;;;;;;;7.05;3.03;;;11.70;99.90;;;;;;5023529;28;20205;-64
2023/05/30 06:31:26;;;;;;;11.70;2.75;;;11.70;99.90;;;;;;5038847;28;20196;-66
2023/05/30 06:33:53;;;;;;;11.15;2.92;;;11.70;99.90;;;;;;5002256;28;20201;-64
2023/05/30 06:36:21;;;;;;;8.30;2.40;;;11.80;99.90;;;;;;5040401;28;20240;-65
2023/05/30 06:38:48;;;;;;;8.18;2.90;;;11.80;99.90;;;;;;5016547;28;20670;-64
2023/05/30 06:41:15;;;;;;;13.32;3.05;;;11.80;99.90;;;;;;5043934;28;20837;-65
2023/05/30 06:43:42;;;;;;;16.35;3.13;;;11.80;99.90;;;;;;5029867;28;20200;-64
2023/05/30 06:46:09;;;;;;;12.00;2.92;;;11.80;99.90;;;;;;5035940;28;20240;-65
2023/05/30 06:48:35;;;;;;;14.73;3.38;;;11.80;99.90;;;;;;5008161;28;20210;-65
2023/05/30 06:51:02;;;;;;;8.02;2.42;;;11.80;99.90;;;;;;5042827;28;20205;-65
2023/05/30 06:53:30;;;;;;;5.80;2.72;;;11.80;99.90;;;;;;5022769;28;20258;-64
2023/05/30 06:55:57;;;;;;;8.65;2.35;;;11.80;99.90;;;;;;5020589;28;20700;-65
2023/05/30 06:58:25;;;;;;;9.90;2.30;;;11.90;99.90;;;;;;4997738;28;20243;-64
2023/05/30 07:00:51;;;;;;;9.93;2.65;;;11.90;99.90;;;;;;5027732;28;20236;-64
2023/05/30 07:03:18;;;;;;;6.75;2.47;;;11.80;99.90;;;;;;5023626;28;20574;-65
2023/05/30 07:05:45;;;;;;;6.38;2.28;;;11.80;99.90;;;;;;5001654;28;20695;-64
2023/05/30 07:08:12;;;;;;;6.95;3.00;;;11.70;99.90;;;;;;5025238;28;20204;-65
2023/05/30 07:10:40;;;;;;;3.53;2.05;;;11.80;99.90;;;;;;5028055;28;20201;-65
2023/05/30 07:13:07;;;;;;;4.82;2.20;;;11.80;99.90;;;;;;5039900;28;20205;-65
2023/05/30 07:15:33;;;;;;;3.83;2.30;;;11.90;99.90;;;;;;5021105;28;20201;-64
2023/05/30 07:18:00;;;;;;;5.07;1.90;;;11.90;99.90;;;;;;5034266;28;20229;-64
2023/05/30 07:20:27;;;;;;;7.57;3.30;;;12.00;99.90;;;;;;4999694;28;20216;-64
2023/05/30 07:22:54;;;;;;;6.90;2.20;;;12.00;99.90;;;;;;5027047;28;20210;-64
2023/05/30 07:25:20;;;;;;;11.00;2.30;;;12.00;99.90;;;;;;5039033;28;20720;-65
2023/05/30 07:27:49;;;;;;;3.33;1.80;;;12.00;99.90;;;;;;5031855;28;20204;-65
2023/05/30 07:30:16;;;;;;;4.93;1.98;;;12.10;99.90;;;;;;5035512;28;20205;-65
2023/05/30 07:32:42;;;;;;;2.58;1.67;;;12.00;99.90;;;;;;5028993;28;20210;-65
2023/05/30 07:35:09;;;;;;;3.60;1.75;;;12.00;99.90;;;;;;5010608;28;20233;-65
2023/05/30 07:37:37;;;;;;;6.53;2.30;;;11.90;99.90;;;;;;5031783;28;20233;-65
2023/05/30 07:40:06;;;;;;;5.03;1.90;;;11.90;99.90;;;;;;5048915;28;20196;-65
2023/05/30 07:42:33;;;;;;;8.32;1.98;;;12.00;99.90;;;;;;5030306;28;20205;-64
2023/05/30 07:45:01;;;;;;;4.47;1.70;;;12.00;99.90;;;;;;5028148;28;20221;-65
2023/05/30 07:47:28;;;;;;;3.83;2.08;;;12.10;99.90;;;;;;5036905;28;20333;-64
2023/05/30 07:49:55;;;;;;;6.25;1.65;;;12.10;99.90;;;;;;5011443;28;20227;-64
2023/05/30 07:52:22;;;;;;;3.35;1.83;;;12.00;99.90;;;;;;4995960;28;20252;-65
2023/05/30 07:54:49;;;;;;;3.85;1.63;;;12.00;99.90;;;;;;5015569;28;20216;-65
2023/05/30 07:57:16;;;;;;;2.15;1.45;;;12.10;99.90;;;;;;5024382;28;20642;-65
2023/05/30 07:59:43;;;;;;;5.22;1.60;;;12.20;99.90;;;;;;5034085;28;20209;-65
2023/05/30 08:02:11;;;;;;;2.63;1.30;;;12.20;99.90;;;;;;5027314;28;20208;-65
2023/05/30 08:04:38;;;;;;;2.97;1.27;;;12.30;99.90;;;;;;5034890;28;20702;-65
2023/05/30 08:07:05;;;;;;;1.67;1.48;;;12.30;99.90;;;;;;5009114;28;20213;-65
2023/05/30 08:09:33;;;;;;;7.22;1.67;;;12.30;99.90;;;;;;5022088;28;20220;-65
2023/05/30 08:12:01;;;;;;;2.75;1.35;;;12.30;99.90;;;;;;5017786;28;20235;-66
2023/05/30 08:14:28;;;;;;;2.05;1.27;;;12.30;99.90;;;;;;5040727;28;20222;-65
2023/05/30 08:16:55;;;;;;;2.53;1.27;;;12.30;99.90;;;;;;5024544;28;20670;-65
2023/05/30 08:19:23;;;;;;;1.75;1.23;;;12.20;99.90;;;;;;5044168;28;20216;-65
2023/05/30 08:21:50;;;;;;;1.52;1.42;;;12.10;99.90;;;;;;4990540;28;20956;-65
2023/05/30 08:24:17;;;;;;;1.88;1.35;;;12.10;99.90;;;;;;5026461;28;20239;-65
2023/05/30 08:26:47;;;;;;;2.13;1.27;;;12.10;99.90;;;;;;5017538;28;20230;-65
2023/05/30 08:29:14;;;;;;;2.33;0.73;;;12.10;99.90;;;;;;5028798;28;20715;-66
2023/05/30 08:31:41;;;;;;;0.90;0.90;;;12.10;99.90;;;;;;5016095;28;21016;-65
2023/05/30 08:34:08;;;;;;;3.88;1.50;;;12.30;99.90;;;;;;5020722;28;20216;-65
2023/05/30 08:36:36;;;;;;;3.67;1.30;;;12.40;99.90;;;;;;5013380;28;20208;-65
2023/05/30 08:39:03;;;;;;;1.13;1.02;;;12.50;99.90;;;;;;5023452;28;20333;-65
2023/05/30 08:41:31;;;;;;;1.83;0.85;;;12.50;99.90;;;;;;5029203;28;20220;-65
2023/05/30 08:43:58;;;;;;;1.65;0.68;;;12.40;99.90;;;;;;5017944;28;20435;-65
2023/05/30 08:46:25;;;;;;;2.78;0.60;;;12.40;99.90;;;;;;5034212;28;20229;-65
2023/05/30 08:48:53;;;;;;;1.23;0.93;;;12.30;99.90;;;;;;5010563;28;20224;-64
2023/05/30 08:51:23;;;;;;;2.85;1.20;;;12.40;99.90;;;;;;5034267;28;20198;-64
2023/05/30 08:54:05;;;;;;;1.60;1.20;;;12.40;99.90;;;;;;4987393;28;20232;-65
2023/05/30 08:56:38;;;;;;;1.95;1.33;;;12.50;99.90;;;;;;5010170;28;21977;-65
2023/05/30 08:59:10;;;;;;;1.92;1.10;;;12.50;99.90;;;;;;5019325;28;20316;-66
2023/05/30 09:01:38;;;;;;;2.15;1.35;;;12.50;99.90;;;;;;5055860;22;20238;-65
2023/05/30 09:04:07;;;;;;;2.08;1.42;;;12.60;99.90;;;;;;5031995;28;20724;-65
2023/05/30 09:06:36;;;;;;;3.15;1.60;;;12.60;99.90;;;;;;5026375;22;20650;-64
2023/05/30 09:09:05;;;;;;;2.17;1.38;;;12.60;99.90;;;;;;4980722;28;20258;-64
2023/05/30 09:11:32;;;;;;;3.08;1.30;;;12.70;99.90;;;;;;4988036;28;22709;-64
2023/05/30 09:13:58;;;;;;;2.55;1.40;;;12.70;99.90;;;;;;5000836;28;20197;-64
2023/05/30 09:16:25;;;;;;;1.75;1.40;;;12.60;99.90;;;;;;5016701;28;20201;-64
2023/05/30 09:18:52;;;;;;;4.90;1.60;;;12.60;99.90;;;;;;4993937;28;20714;-64
2023/05/30 09:21:20;;;;;;;2.15;1.35;;;12.60;99.90;;;;;;5025723;28;20784;-64
2023/05/30 09:23:46;;;;;;;3.67;2.20;;;12.50;99.90;;;;;;4994822;28;20201;-64
2023/05/30 09:26:18;;;;;;;2.50;1.73;;;12.40;99.90;;;;;;5007267;28;20244;-64
2023/05/30 09:28:46;;;;;;;2.58;1.67;;;12.50;99.90;;;;;;4996239;28;20578;-64
2023/05/30 09:31:13;;;;;;;1.90;1.50;;;12.50;99.90;;;;;;5017594;28;20263;-64
2023/05/30 09:33:44;;;;;;;2.17;1.30;;;12.60;99.90;;;;;;5008515;28;20457;-65
2023/05/30 09:36:15;;;;;;;2.50;1.08;;;12.70;99.90;;;;;;5019995;28;20283;-65
2023/05/30 09:38:53;;;;;;;1.45;0.88;;;12.80;99.90;;;;;;4986865;28;20551;-64
2023/05/30 09:41:21;;;;;;;1.92;1.20;;;12.90;99.90;;;;;;4988024;28;20333;-65
2023/05/30 09:43:52;;;;;;;2.33;0.90;;;12.80;99.90;;;;;;5018877;28;20217;-64
2023/05/30 09:46:20;;;;;;;1.42;1.00;;;12.80;99.90;;;;;;5005040;28;20209;-65
2023/05/30 09:48:47;;;;;;;1.42;1.10;;;12.80;99.90;;;;;;5014127;28;20284;-64
2023/05/30 09:51:16;;;;;;;1.10;1.00;;;12.80;99.90;;;;;;5002534;28;20223;-65
2023/05/30 09:53:56;;;;;;;1.20;1.00;;;13.00;99.90;;;;;;5010147;28;20213;-64
2023/05/30 09:56:34;;;;;;;1.13;0.90;;;13.10;99.90;;;;;;4968964;28;20936;-64
2023/05/30 09:59:03;;;;;;;1.30;1.08;;;13.30;99.90;;;;;;5001927;28;21355;-64
2023/05/30 10:01:37;;;;;;;1.48;1.38;;;13.40;99.90;;;;;;5000200;28;20206;-64
2023/05/30 10:04:11;;;;;;;1.17;1.08;;;13.30;99.90;;;;;;5007978;28;20679;-64
2023/05/30 10:06:40;;;;;;;1.08;1.02;;;13.30;99.90;;;;;;5012431;28;20378;-64
2023/05/30 10:09:07;;;;;;;1.60;1.20;;;13.30;99.90;;;;;;5022943;28;20206;-64
2023/05/30 10:11:38;;;;;;;3.65;1.35;;;13.20;99.90;;;;;;4991003;28;20210;-64
2023/05/30 10:14:05;;;;;;;2.53;1.48;;;13.20;99.90;;;;;;5015630;28;20206;-65
2023/05/30 10:16:34;;;;;;;2.47;1.63;;;13.20;99.90;;;;;;5006813;28;20201;-64
2023/05/30 10:19:04;;;;;;;1.88;1.30;;;13.30;99.90;;;;;;5022755;28;20229;-64
2023/05/30 10:21:37;;;;;;;2.22;1.48;;;13.40;99.90;;;;;;5005226;28;20259;-64
2023/05/30 10:24:05;;;;;;;2.85;1.83;;;13.60;99.90;;;;;;4994739;28;20638;-64
2023/05/30 10:26:35;;;;;;;1.98;1.30;;;13.60;99.90;;;;;;4976026;28;20309;-64
2023/05/30 10:29:07;;;;;;;2.15;1.25;;;13.70;99.90;;;;;;5000827;28;20432;-64
2023/05/30 10:31:35;;;;;;;3.88;1.13;;;13.60;99.90;;;;;;5002802;28;20275;-65
2023/05/30 10:34:04;;;;;;;1.65;1.05;;;13.60;99.90;;;;;;5012548;28;20208;-65
2023/05/30 10:36:32;;;;;;;1.58;1.20;;;13.60;99.90;;;;;;4999714;28;20316;-64
2023/05/30 10:39:11;;;;;;;2.35;1.10;;;13.70;99.90;;;;;;5012286;28;20236;-64
2023/05/30 10:41:45;;;;;;;1.60;1.10;;;13.70;99.90;;;;;;4970762;28;20764;-64
2023/05/30 10:44:23;;;;;;;2.55;1.15;;;13.80;99.90;;;;;;5002793;28;20422;-65
2023/05/30 10:46:58;;;;;;;1.40;1.30;;;13.80;99.90;;;;;;5012631;28;20916;-64
2023/05/30 10:49:27;;;;;;;1.10;1.00;;;13.80;99.90;;;;;;5027586;28;20211;-65
2023/05/30 10:51:59;;;;;;;4.90;1.15;;;13.80;99.90;;;;;;5000804;28;20198;-64
2023/05/30 10:54:30;;;;;;;1.27;1.10;;;13.80;99.90;;;;;;5014886;28;20579;-64
2023/05/30 10:56:57;;;;;;;3.00;1.15;;;13.70;99.90;;;;;;4984736;28;20236;-64
2023/05/30 10:59:26;;;;;;;3.13;1.10;;;13.70;99.90;;;;;;4994580;28;20236;-64
2023/05/30 11:02:00;;;;;;;2.22;0.90;;;13.80;99.90;;;;;;5020303;28;20209;-64
2023/05/30 11:04:32;;;;;;;1.30;1.20;;;13.90;99.90;;;;;;5010662;28;20224;-64
2023/05/30 11:06:58;;;;;;;0.93;0.90;;;13.90;99.90;;;;;;4988929;28;21584;-64
2023/05/30 11:09:27;;;;;;;1.48;1.30;;;13.90;99.90;;;;;;5022027;28;20216;-65
2023/05/30 11:11:56;;;;;;;1.35;1.00;;;13.90;99.90;;;;;;4980817;28;20568;-65
2023/05/30 11:14:27;;;;;;;2.25;1.20;;;13.80;99.90;;;;;;5016505;28;20224;-64
2023/05/30 11:17:01;;;;;;;2.00;1.27;;;13.90;99.90;;;;;;5017653;28;20271;-64
2023/05/30 11:19:28;;;;;;;1.95;0.98;;;13.90;99.90;;;;;;5005769;28;20236;-65
2023/05/30 11:21:59;;;;;;;4.68;1.13;;;14.00;99.90;;;;;;5005258;28;21071;-64
2023/05/30 11:24:27;;;;;;;0.85;0.80;;;14.00;99.90;;;;;;5032481;22;20336;-64
2023/05/30 11:26:59;;;;;;;1.65;0.90;;;14.00;99.90;;;;;;5003674;28;20216;-65
2023/05/30 11:29:37;;;;;;;1.15;1.05;;;14.00;99.90;;;;;;5067558;28;20329;-65
2023/05/30 11:32:08;;;;;;;1.83;0.85;;;14.00;99.90;;;;;;5042517;28;20207;-64
2023/05/30 11:34:35;;;;;;;0.82;0.82;;;14.00;99.90;;;;;;5048433;28;20209;-64
2023/05/30 11:37:03;;;;;;;1.40;0.98;;;14.00;99.90;;;;;;5038160;28;20243;-64
2023/05/30 11:39:32;;;;;;;1.20;1.10;;;14.00;99.90;;;;;;5002776;28;20258;-64
2023/05/30 11:42:00;;;;;;;1.25;1.00;;;14.00;99.90;;;;;;5050902;28;20403;-64
2023/05/30 11:44:28;;;;;;;1.30;1.20;;;13.90;99.90;;;;;;5008011;28;20230;-64
2023/05/30 11:47:01;;;;;;;3.88;1.13;;;14.00;99.90;;;;;;5026713;28;20211;-64
2023/05/30 11:49:28;;;;;;;1.40;1.20;;;14.10;99.90;;;;;;5047252;28;20204;-64
2023/05/30 11:51:55;;;;;;;1.27;1.00;;;14.10;99.90;;;;;;5046178;28;20737;-64
2023/05/30 11:54:22;;;;;;;1.20;1.10;;;14.20;99.90;;;;;;5062365;28;20223;-64
2023/05/30 11:56:50;;;;;;;1.98;1.40;;;14.20;99.90;;;;;;5058868;28;20209;-65
2023/05/30 11:59:21;;;;;;;1.88;1.52;;;14.30;99.90;;;;;;5022361;28;20234;-65
2023/05/30 12:01:57;;;;;;;2.00;1.80;;;14.40;99.90;;;;;;5037351;28;20208;-64
2023/05/30 12:04:27;;;;;;;1.70;1.60;;;14.40;99.90;;;;;;5047015;28;20207;-64
2023/05/30 12:06:58;;;;;;;2.38;1.60;;;14.50;99.90;;;;;;5061843;28;20265;-65
2023/05/30 12:09:25;;;;;;;2.75;1.40;;;14.60;99.90;;;;;;5036998;28;20841;-64
2023/05/30 12:11:54;;;;;;;2.97;1.33;;;14.50;99.90;;;;;;5055779;28;20864;-64
2023/05/30 12:14:21;;;;;;;1.58;1.42;;;14.50;99.90;;;;;;5023661;28;20209;-64
2023/05/30 12:16:54;;;;;;;1.63;1.52;;;14.60;99.90;;;;;;5030597;28;20201;-65
2023/05/30 12:19:21;;;;;;;1.45;1.35;;;14.60;99.90;;;;;;5066384;28;20220;-64
2023/05/30 12:21:54;;;;;;;3.00;1.83;;;14.60;99.90;;;;;;5049873;28;20227;-64
2023/05/30 12:24:23;;;;;;;2.17;1.80;;;14.60;99.90;;;;;;5043605;28;20235;-64
2023/05/30 12:26:53;;;;;;;2.78;1.30;;;14.60;99.90;;;;;;5049928;28;20215;-64
2023/05/30 12:29:23;;;;;;;3.08;1.40;;;14.60;99.90;;;;;;5020447;28;20209;-64
2023/05/30 12:31:50;;;;;;;3.25;1.73;;;14.60;99.90;;;;;;5015914;28;20220;-65
2023/05/30 12:34:17;;;;;;;4.03;1.92;;;14.60;99.90;;;;;;5044169;28;20192;-64
2023/05/30 12:36:44;;;;;;;2.55;2.05;;;14.70;99.90;;;;;;5037187;28;20294;-63
2023/05/30 12:39:12;;;;;;;2.10;1.90;;;14.80;99.90;;;;;;5025261;28;20247;-64
2023/05/30 12:41:40;;;;;;;2.40;1.88;;;14.90;99.90;;;;;;5056983;28;21064;-64
2023/05/30 12:44:08;;;;;;;2.72;1.80;;;15.10;99.90;;;;;;4991863;28;20285;-64
2023/05/30 12:46:38;;;;;;;1.38;1.25;;;15.10;99.90;;;;;;5047647;28;20200;-65
2023/05/30 12:49:04;;;;;;;1.60;1.30;;;15.10;99.90;;;;;;5027588;28;20280;-64